Time;durP1;ratioP1;P1;durP2;ratioP2;P2;SDS_P1;SDS_P2;PMS_P1;PMS_P2;Temp;Humidity;BMP_temperature;BMP_pressure;BME280_temperature;BME280_humidity;BME280_pressure;Samples;Min_cycle;Max_cycle;Signal;HPM_P1;HPM_P2
2023/11/03 00:01:12;;;;;;;3.07;0.83;;;;;;;12.48;66.70;97801.19;5070196;28;20193;-85
2023/11/03 00:03:39;;;;;;;1.00;0.70;;;;;;;12.38;66.48;97797.53;5071741;28;20202;-85
2023/11/03 00:06:06;;;;;;;1.47;0.70;;;;;;;12.38;66.27;97808.00;5071525;28;20201;-84
2023/11/03 00:08:33;;;;;;;2.37;0.90;;;;;;;12.44;66.49;97798.88;5071837;28;20232;-83
2023/11/03 00:11:04;;;;;;;8.00;1.00;;;;;;;12.18;66.94;97817.19;5067313;28;20547;-85
2023/11/03 00:13:32;;;;;;;1.30;0.60;;;;;;;12.23;67.53;97801.19;5068292;28;20209;-83
2023/11/03 00:15:58;;;;;;;2.10;1.00;;;;;;;12.29;66.11;97806.03;5072294;28;20189;-84
2023/11/03 00:18:25;;;;;;;3.13;0.90;;;;;;;12.30;65.94;97818.97;5075735;28;20225;-85
2023/11/03 00:20:51;;;;;;;3.13;0.80;;;;;;;12.42;66.03;97838.22;5060280;28;20225;-83
2023/11/03 00:23:18;;;;;;;3.27;0.83;;;;;;;12.44;66.22;97832.91;5071344;28;20197;-84
2023/11/03 00:25:47;;;;;;;1.20;0.87;;;;;;;12.39;65.55;97848.06;5074827;28;20211;-84
2023/11/03 00:28:17;;;;;;;3.37;0.73;;;;;;;12.21;65.98;97866.69;5073685;28;20225;-84
2023/11/03 00:30:43;;;;;;;2.43;0.53;;;;;;;12.11;65.64;97865.66;5069441;28;20224;-82
2023/11/03 00:33:10;;;;;;;5.27;1.30;;;;;;;12.27;66.22;97866.28;5062376;28;20206;-84
2023/11/03 00:35:37;;;;;;;2.77;0.80;;;;;;;12.25;65.79;97869.91;5072529;28;20198;-83
2023/11/03 00:38:03;;;;;;;3.60;1.23;;;;;;;12.27;66.39;97849.75;5072998;28;20209;-83
2023/11/03 00:40:30;;;;;;;1.20;0.60;;;;;;;12.28;65.24;97854.88;5074584;28;20245;-85
2023/11/03 00:43:00;;;;;;;2.17;0.70;;;;;;;12.16;65.09;97860.09;5069995;28;20221;-85
2023/11/03 00:45:28;;;;;;;2.50;0.77;;;;;;;12.22;65.77;97863.13;5074622;28;20210;-83
2023/11/03 00:47:55;;;;;;;3.30;0.90;;;;;;;12.16;65.15;97868.78;5076607;28;20202;-83
2023/11/03 00:50:22;;;;;;;2.23;0.77;;;;;;;12.13;64.77;97874.22;5074865;28;20225;-84
2023/11/03 00:52:50;;;;;;;3.43;0.80;;;;;;;12.07;65.04;97872.84;5076423;28;20204;-85
2023/11/03 00:55:16;;;;;;;6.97;0.83;;;;;;;11.99;65.47;97872.53;5075361;28;20229;-84
2023/11/03 00:57:43;;;;;;;2.50;0.80;;;;;;;11.76;65.30;97891.44;5074440;28;20206;-81
2023/11/03 01:00:12;;;;;;;2.67;0.80;;;;;;;12.00;65.75;97866.34;5074741;28;20234;-84
2023/11/03 01:02:41;;;;;;;3.07;1.10;;;;;;;11.97;65.17;97876.16;5075048;28;20206;-86
2023/11/03 01:05:10;;;;;;;2.33;0.93;;;;;;;11.93;65.16;97893.81;5073971;28;20215;-85
2023/11/03 01:07:37;;;;;;;4.23;1.10;;;;;;;11.83;65.47;97887.47;5073232;28;20201;-86
2023/11/03 01:10:05;;;;;;;2.70;0.90;;;;;;;11.98;65.61;97891.75;5073533;28;20221;-82
2023/11/03 01:12:31;;;;;;;5.20;0.87;;;;;;;11.99;65.14;97893.44;5067056;28;20214;-86
2023/11/03 01:14:58;;;;;;;3.77;1.03;;;;;;;11.94;64.93;97895.50;5072641;28;20192;-84
2023/11/03 01:17:27;;;;;;;6.60;1.37;;;;;;;11.92;64.31;97915.69;5074718;28;20201;-85
2023/11/03 01:19:55;;;;;;;2.47;1.00;;;;;;;11.76;64.85;97917.59;5072505;28;20227;-86
2023/11/03 01:22:22;;;;;;;2.50;0.93;;;;;;;11.80;65.26;97908.59;5073609;28;20197;-85
2023/11/03 01:24:52;;;;;;;2.57;0.93;;;;;;;11.79;64.66;97912.16;5074008;28;20211;-83
2023/11/03 01:27:18;;;;;;;2.77;0.70;;;;;;;11.81;64.18;97915.50;5073003;28;20212;-86
2023/11/03 01:29:46;;;;;;;4.13;1.40;;;;;;;11.78;63.96;97931.41;5057786;28;20226;-82
2023/11/03 01:32:13;;;;;;;2.87;0.80;;;;;;;11.89;64.27;97926.31;5074305;28;20223;-86
2023/11/03 01:34:40;;;;;;;3.40;1.00;;;;;;;11.78;63.90;97936.63;5073928;28;20237;-84
2023/11/03 01:37:08;;;;;;;4.60;1.00;;;;;;;11.55;64.76;97938.91;5073586;28;20208;-85
2023/11/03 01:39:35;;;;;;;2.73;1.00;;;;;;;11.63;64.47;97930.59;5074263;28;20233;-86
2023/11/03 01:42:02;;;;;;;2.17;1.10;;;;;;;11.57;64.74;97930.97;5061995;28;20206;-85
2023/11/03 01:44:29;;;;;;;4.07;1.47;;;;;;;11.63;65.15;97931.41;5063807;28;20207;-83
2023/11/03 01:46:55;;;;;;;2.97;1.10;;;;;;;11.39;64.45;97946.03;5075124;28;20212;-83
2023/11/03 01:49:22;;;;;;;5.33;1.10;;;;;;;11.56;65.20;97931.94;5072204;28;20237;-84
2023/11/03 01:51:49;;;;;;;2.53;1.20;;;;;;;11.59;65.03;97937.78;5074477;28;20257;-85
2023/11/03 01:54:16;;;;;;;1.93;0.87;;;;;;;11.68;65.38;97915.47;5075935;28;20194;-83
2023/11/03 01:56:42;;;;;;;4.70;1.17;;;;;;;11.36;65.70;97935.75;5078403;28;20204;-83
2023/11/03 01:59:09;;;;;;;3.33;1.27;;;;;;;11.55;65.25;97927.63;5078635;28;20420;-82
2023/11/03 02:01:37;;;;;;;5.63;1.10;;;;;;;11.61;64.31;97922.84;5079130;28;20218;-81
2023/11/03 02:04:04;;;;;;;3.13;1.13;;;;;;;11.24;64.43;97951.28;5079937;28;20188;-81
2023/11/03 02:06:31;;;;;;;4.07;1.40;;;;;;;11.38;64.89;97942.59;5079439;28;20207;-81
2023/11/03 02:08:57;;;;;;;2.10;0.90;;;;;;;11.29;64.69;97948.38;5078523;28;20213;-86
2023/11/03 02:11:28;;;;;;;3.17;1.30;;;;;;;11.32;64.86;97943.81;5066676;28;20194;-85
2023/11/03 02:13:55;;;;;;;2.93;0.90;;;;;;;11.37;65.44;97950.50;5051789;28;20207;-86
2023/11/03 02:16:22;;;;;;;1.77;0.93;;;;;;;11.38;65.27;97954.78;5069111;28;20213;-83
2023/11/03 02:18:50;;;;;;;4.13;1.37;;;;;;;11.13;65.01;97974.59;5072931;28;20222;-85
2023/11/03 02:21:17;;;;;;;4.40;1.67;;;;;;;11.30;65.30;97973.56;5072213;28;20225;-85
2023/11/03 02:23:44;;;;;;;6.10;1.20;;;;;;;11.35;65.47;97955.00;5072970;28;20194;-83
2023/11/03 02:26:11;;;;;;;2.90;0.90;;;;;;;11.27;66.09;97950.25;5060918;28;20199;-83
2023/11/03 02:28:38;;;;;;;3.33;1.10;;;;;;;11.29;65.36;97954.44;5074288;28;20204;-85
2023/11/03 02:31:05;;;;;;;2.77;1.27;;;;;;;11.38;65.21;97947.81;5073525;28;20205;-83
2023/11/03 02:33:31;;;;;;;2.20;1.07;;;;;;;11.14;65.66;97963.22;5073532;28;20216;-83
2023/11/03 02:35:58;;;;;;;3.00;1.53;;;;;;;10.82;66.01;97944.28;5071328;28;20212;-84
2023/11/03 02:38:24;;;;;;;4.20;1.73;;;;;;;11.10;66.40;97933.03;5073962;28;20191;-83
2023/11/03 02:40:54;;;;;;;4.63;1.17;;;;;;;11.19;65.89;97921.16;5072443;28;20234;-84
2023/11/03 02:43:21;;;;;;;2.83;1.10;;;;;;;11.16;65.71;97929.16;5061901;28;20206;-84
2023/11/03 02:45:47;;;;;;;3.33;1.30;;;;;;;11.28;66.28;97931.88;5063870;28;20191;-83
2023/11/03 02:48:14;;;;;;;4.17;1.20;;;;;;;11.19;65.90;97942.88;5062883;28;20190;-83
2023/11/03 02:50:40;;;;;;;3.10;1.33;;;;;;;11.25;66.47;97949.50;5072782;28;20205;-84
2023/11/03 02:53:07;;;;;;;2.67;1.17;;;;;;;11.09;67.43;97931.34;5071753;28;20186;-85
2023/11/03 02:55:35;;;;;;;5.07;1.30;;;;;;;11.19;66.55;97922.00;5070666;28;20219;-85
2023/11/03 02:58:03;;;;;;;3.50;1.37;;;;;;;11.26;66.61;97912.03;5070634;28;20206;-84
2023/11/03 03:00:29;;;;;;;3.23;1.23;;;;;;;11.09;65.92;97926.94;5070396;28;20236;-83
2023/11/03 03:02:56;;;;;;;4.93;1.73;;;;;;;11.13;66.83;97927.59;5070123;28;20296;-83
2023/11/03 03:05:23;;;;;;;3.13;0.80;;;;;;;11.23;66.99;97909.59;5072007;28;20205;-83
2023/11/03 03:07:49;;;;;;;3.07;1.23;;;;;;;11.10;66.68;97923.41;5074756;28;20233;-84
2023/11/03 03:10:16;;;;;;;3.43;1.00;;;;;;;11.18;67.15;97904.66;5074802;28;20225;-83
2023/11/03 03:12:46;;;;;;;4.70;1.33;;;;;;;11.12;66.67;97905.06;5066721;28;20212;-83
2023/11/03 03:15:15;;;;;;;6.10;1.60;;;;;;;11.20;66.66;97883.66;5073800;28;20197;-83
2023/11/03 03:17:41;;;;;;;2.53;0.97;;;;;;;10.87;66.57;97906.53;5067225;28;20305;-84
2023/11/03 03:20:08;;;;;;;5.77;2.13;;;;;;;10.88;66.58;97889.97;5065148;28;20233;-84
2023/11/03 03:22:35;;;;;;;3.47;0.93;;;;;;;10.95;66.97;97881.75;5069327;28;20211;-84
2023/11/03 03:25:02;;;;;;;6.47;1.27;;;;;;;10.81;66.99;97873.00;5074953;28;20208;-84
2023/11/03 03:27:28;;;;;;;4.57;1.27;;;;;;;10.83;67.00;97870.28;5073955;28;20189;-84
2023/11/03 03:29:55;;;;;;;4.57;1.30;;;;;;;11.00;66.63;97862.28;5074860;28;20206;-83
2023/11/03 03:32:23;;;;;;;4.73;1.03;;;;;;;10.95;67.09;97866.91;5074240;28;20194;-83
2023/11/03 03:34:49;;;;;;;4.23;1.03;;;;;;;10.87;66.12;97872.63;5072367;28;20189;-84
2023/11/03 03:37:16;;;;;;;3.13;1.03;;;;;;;10.90;67.00;97869.81;5071731;28;20200;-85
2023/11/03 03:39:42;;;;;;;2.50;1.03;;;;;;;10.96;66.95;97846.88;5065704;28;20216;-82
2023/11/03 03:42:08;;;;;;;1.57;0.90;;;;;;;10.93;66.65;97845.31;5066110;28;20208;-83
2023/11/03 03:44:39;;;;;;;5.90;1.40;;;;;;;10.87;66.01;97846.50;5074529;28;20194;-83
2023/11/03 03:47:06;;;;;;;3.73;1.03;;;;;;;10.82;66.33;97843.38;5074488;28;20198;-83
2023/11/03 03:49:34;;;;;;;2.87;0.73;;;;;;;10.97;66.67;97840.72;5073795;28;20259;-83
2023/11/03 03:52:01;;;;;;;3.67;1.30;;;;;;;10.66;66.55;97834.78;5071220;28;20194;-84
2023/11/03 03:54:28;;;;;;;5.10;1.33;;;;;;;10.77;67.08;97831.53;5071719;28;20236;-83
2023/11/03 03:56:54;;;;;;;4.50;1.20;;;;;;;10.75;66.77;97823.78;5072450;28;20193;-81
2023/11/03 03:59:21;;;;;;;2.27;1.10;;;;;;;10.83;66.90;97807.66;5074754;28;20231;-83
2023/11/03 04:01:47;;;;;;;5.87;1.37;;;;;;;10.71;67.13;97828.34;5070838;28;20247;-83
2023/11/03 04:04:14;;;;;;;3.97;1.00;;;;;;;10.66;67.29;97806.94;5060842;28;20198;-84
2023/11/03 04:06:44;;;;;;;3.67;1.20;;;;;;;10.77;67.53;97803.66;5057230;28;20202;-84
2023/11/03 04:09:11;;;;;;;3.43;1.30;;;;;;;10.77;67.75;97800.22;5070068;28;20228;-83
2023/11/03 04:11:37;;;;;;;5.17;1.27;;;;;;;10.68;67.47;97799.00;5066518;28;20210;-84
2023/11/03 04:14:04;;;;;;;3.50;1.23;;;;;;;10.76;67.84;97808.97;5071233;28;20243;-84
2023/11/03 04:16:34;;;;;;;1.83;0.73;;;;;;;10.63;67.78;97812.34;5070669;28;20205;-83
2023/11/03 04:19:00;;;;;;;3.67;0.90;;;;;;;10.67;68.13;97798.19;5068492;28;20236;-84
2023/11/03 04:21:27;;;;;;;3.90;1.27;;;;;;;10.68;68.71;97799.00;5068316;28;20234;-83
2023/11/03 04:23:55;;;;;;;2.00;0.97;;;;;;;10.66;68.64;97793.91;5070492;28;20209;-83
2023/11/03 04:26:22;;;;;;;3.87;1.87;;;;;;;10.73;68.38;97799.56;5070474;28;20218;-82
2023/11/03 04:28:48;;;;;;;7.00;1.73;;;;;;;10.61;68.43;97798.56;5067003;28;20222;-84
2023/11/03 04:31:15;;;;;;;1.70;1.10;;;;;;;10.68;68.45;97778.13;5055708;28;20217;-82
2023/11/03 04:33:43;;;;;;;3.83;1.00;;;;;;;10.65;68.57;97784.38;5070791;28;20205;-83
2023/11/03 04:36:10;;;;;;;3.90;1.10;;;;;;;10.64;68.28;97787.09;5065102;28;20190;-83
2023/11/03 04:38:37;;;;;;;2.50;1.27;;;;;;;10.77;68.10;97781.97;5061979;28;20220;-83
2023/11/03 04:41:05;;;;;;;2.67;1.10;;;;;;;10.63;68.57;97788.03;5068694;28;20230;-84
2023/11/03 04:43:35;;;;;;;6.23;2.37;;;;;;;10.39;68.73;97801.66;5067775;28;20202;-82
2023/11/03 04:46:03;;;;;;;3.57;0.90;;;;;;;10.51;68.80;97794.84;5057298;28;20217;-83
2023/11/03 04:48:29;;;;;;;3.80;1.20;;;;;;;10.60;68.28;97786.44;5071530;28;20236;-84
2023/11/03 04:50:56;;;;;;;3.77;1.10;;;;;;;10.71;68.45;97778.78;5070376;28;20198;-82
2023/11/03 04:53:22;;;;;;;3.20;1.33;;;;;;;10.76;68.45;97795.91;5073336;28;20209;-83
2023/11/03 04:55:49;;;;;;;3.03;1.00;;;;;;;10.82;68.48;97793.78;5073855;28;20852;-85
2023/11/03 04:58:18;;;;;;;2.60;1.10;;;;;;;10.74;68.04;97803.84;5073886;28;20202;-84
2023/11/03 05:00:46;;;;;;;4.07;1.40;;;;;;;10.71;68.29;97804.03;5073248;28;20229;-83
2023/11/03 05:03:13;;;;;;;5.27;1.07;;;;;;;10.71;68.37;97809.25;5075432;28;20202;-83
2023/11/03 05:05:39;;;;;;;3.13;0.90;;;;;;;10.80;68.18;97798.28;5074973;28;20228;-84
2023/11/03 05:08:05;;;;;;;3.83;1.03;;;;;;;10.77;68.34;97805.44;5074091;28;20209;-83
2023/11/03 05:10:32;;;;;;;4.10;1.30;;;;;;;10.79;68.20;97820.06;5074352;28;20232;-85
2023/11/03 05:12:59;;;;;;;2.67;1.07;;;;;;;10.66;68.63;97820.00;5065683;28;20212;-84
2023/11/03 05:15:28;;;;;;;2.73;0.90;;;;;;;10.67;68.29;97816.44;5071853;28;20202;-84
2023/11/03 05:17:54;;;;;;;3.70;1.00;;;;;;;10.65;68.45;97799.22;5073895;28;20202;-83
2023/11/03 05:20:21;;;;;;;2.83;1.20;;;;;;;10.48;68.66;97811.50;5073168;28;20245;-84
2023/11/03 05:22:48;;;;;;;4.33;1.30;;;;;;;10.51;68.64;97805.28;5074851;28;20193;-83
2023/11/03 05:25:14;;;;;;;4.27;1.20;;;;;;;10.60;68.84;97798.66;5076620;28;20192;-82
2023/11/03 05:27:41;;;;;;;2.67;0.93;;;;;;;10.66;68.29;97795.66;5076133;28;20272;-85
2023/11/03 05:30:09;;;;;;;4.60;0.97;;;;;;;10.74;68.37;97796.00;5074424;28;20205;-81
2023/11/03 05:32:36;;;;;;;2.83;0.90;;;;;;;10.79;68.26;97790.53;5074913;28;20189;-83
2023/11/03 05:35:03;;;;;;;1.47;0.90;;;;;;;10.65;68.84;97789.59;5073141;28;20205;-85
2023/11/03 05:37:30;;;;;;;1.97;1.17;;;;;;;10.61;68.78;97790.72;5074896;28;20293;-83
2023/11/03 05:39:56;;;;;;;1.87;1.23;;;;;;;10.62;68.96;97781.97;5072810;28;20225;-82
2023/11/03 05:42:23;;;;;;;2.07;0.80;;;;;;;10.63;69.30;97786.25;5063333;28;20261;-83
2023/11/03 05:44:49;;;;;;;4.37;0.80;;;;;;;10.72;68.97;97777.88;5070647;28;20209;-83
2023/11/03 05:47:16;;;;;;;3.27;1.10;;;;;;;10.64;68.39;97792.31;5068995;28;20207;-83
2023/11/03 05:49:43;;;;;;;2.20;0.97;;;;;;;10.72;68.66;97785.69;5073480;28;20222;-85
2023/11/03 05:52:10;;;;;;;3.43;1.27;;;;;;;10.76;68.34;97799.38;5069291;28;20198;-83
2023/11/03 05:54:36;;;;;;;2.50;0.90;;;;;;;10.78;68.33;97802.72;5070149;28;20221;-85
2023/11/03 05:57:03;;;;;;;2.80;0.90;;;;;;;10.70;68.27;97807.56;5070328;28;20213;-84
2023/11/03 05:59:29;;;;;;;2.90;0.77;;;;;;;10.64;68.54;97808.78;5070036;28;20240;-84
2023/11/03 06:01:56;;;;;;;1.97;1.10;;;;;;;10.69;68.45;97811.97;5070396;28;20238;-84
2023/11/03 06:04:23;;;;;;;10.87;0.90;;;;;;;10.79;68.18;97800.97;5072039;28;20295;-84
2023/11/03 06:06:50;;;;;;;4.57;0.90;;;;;;;10.62;68.81;97809.81;5065930;28;20201;-84
2023/11/03 06:09:17;;;;;;;5.37;1.07;;;;;;;10.56;69.03;97803.22;5070548;28;20221;-83
2023/11/03 06:11:43;;;;;;;4.70;1.20;;;;;;;10.58;69.31;97803.94;5073228;28;20206;-84
2023/11/03 06:14:10;;;;;;;2.77;0.90;;;;;;;10.55;68.81;97801.53;5065106;28;20209;-81
2023/11/03 06:16:37;;;;;;;2.20;0.97;;;;;;;10.42;68.77;97811.03;5057136;28;20282;-84
2023/11/03 06:19:04;;;;;;;2.13;0.80;;;;;;;10.64;68.90;97793.13;5072245;28;20289;-85
2023/11/03 06:21:31;;;;;;;3.13;1.00;;;;;;;10.43;69.36;97797.09;5061245;28;20352;-85
2023/11/03 06:23:58;;;;;;;4.17;1.80;;;;;;;10.53;68.98;97803.41;5059719;28;20215;-81
2023/11/03 06:26:25;;;;;;;4.77;1.00;;;;;;;10.54;69.33;97792.03;5068107;28;20220;-85
2023/11/03 06:28:54;;;;;;;2.03;0.60;;;;;;;10.59;69.09;97789.16;5070085;28;20229;-84
2023/11/03 06:31:20;;;;;;;2.37;0.97;;;;;;;10.60;68.98;97798.66;5068014;28;20224;-84
2023/11/03 06:33:47;;;;;;;3.63;1.00;;;;;;;10.65;69.02;97799.22;5069685;28;20206;-83
2023/11/03 06:36:15;;;;;;;3.17;0.97;;;;;;;10.60;68.91;97809.91;5068131;28;20209;-85
2023/11/03 06:38:41;;;;;;;4.60;1.10;;;;;;;10.67;69.36;97802.56;5066448;28;20240;-84
2023/11/03 06:41:12;;;;;;;4.30;1.20;;;;;;;10.77;68.85;97805.44;5039379;28;20219;-84
2023/11/03 06:43:39;;;;;;;4.03;0.90;;;;;;;10.72;69.08;97819.63;5057756;28;20205;-83
2023/11/03 06:46:09;;;;;;;1.80;1.00;;;;;;;10.70;68.92;97824.09;5064693;28;20738;-85
2023/11/03 06:48:35;;;;;;;3.77;1.20;;;;;;;10.69;68.68;97822.41;5045497;28;20676;-86
2023/11/03 06:51:02;;;;;;;2.47;1.10;;;;;;;10.68;68.77;97823.34;5054232;28;20202;-86
2023/11/03 06:53:29;;;;;;;1.40;0.90;;;;;;;10.76;68.41;97830.69;5054439;28;20300;-85
2023/11/03 06:55:55;;;;;;;1.83;1.00;;;;;;;10.82;68.99;97819.88;5054775;28;20213;-84
2023/11/03 06:58:23;;;;;;;3.87;1.20;;;;;;;10.87;68.84;97824.81;5055091;28;20202;-86
2023/11/03 07:00:50;;;;;;;3.13;1.30;;;;;;;10.78;68.54;97830.59;5054224;28;20244;-87
2023/11/03 07:03:16;;;;;;;3.40;1.13;;;;;;;10.73;68.46;97820.44;5054702;28;20210;-84
2023/11/03 07:05:45;;;;;;;2.97;0.90;;;;;;;10.72;68.87;97822.22;5054281;28;20209;-83
2023/11/03 07:08:11;;;;;;;3.57;1.10;;;;;;;10.85;69.14;97811.84;5035005;28;20202;-86
2023/11/03 07:10:38;;;;;;;3.67;0.90;;;;;;;10.84;68.80;97804.97;5043576;28;20225;-84
2023/11/03 07:13:05;;;;;;;3.57;0.90;;;;;;;10.94;69.13;97810.41;5048182;28;20210;-86
2023/11/03 07:15:35;;;;;;;2.93;1.00;;;;;;;10.91;68.34;97834.94;5055763;28;20206;-83
2023/11/03 07:18:01;;;;;;;1.10;0.73;;;;;;;10.93;68.58;97843.53;5054730;28;20298;-86
2023/11/03 07:20:30;;;;;;;2.17;0.70;;;;;;;10.92;69.01;97852.31;5043446;28;20232;-85
2023/11/03 07:22:56;;;;;;;3.37;0.80;;;;;;;10.88;68.93;97849.94;5055069;28;20225;-85
2023/11/03 07:25:25;;;;;;;2.67;0.90;;;;;;;10.95;68.82;97853.03;5050089;28;20210;-82
2023/11/03 07:27:51;;;;;;;3.77;1.07;;;;;;;11.00;68.43;97864.88;5053004;28;20641;-84
2023/11/03 07:30:17;;;;;;;2.80;0.90;;;;;;;11.03;68.03;97885.56;5056019;28;20708;-82
2023/11/03 07:32:46;;;;;;;3.03;0.83;;;;;;;11.11;68.30;97892.91;5056986;28;20201;-83
2023/11/03 07:35:13;;;;;;;6.13;0.90;;;;;;;11.28;68.86;97887.47;5057418;28;20269;-85
2023/11/03 07:37:39;;;;;;;2.63;1.10;;;;;;;11.40;68.08;97898.94;5057299;28;20205;-83
2023/11/03 07:40:07;;;;;;;1.47;0.50;;;;;;;11.41;67.40;97920.66;5056992;28;20241;-83
2023/11/03 07:42:34;;;;;;;2.83;0.83;;;;;;;11.35;67.64;97936.72;5049047;28;20230;-87
2023/11/03 07:45:00;;;;;;;1.70;0.60;;;;;;;11.42;67.78;97935.41;5051186;28;20295;-85
2023/11/03 07:47:27;;;;;;;1.53;0.70;;;;;;;11.40;66.80;97940.72;5042000;28;20264;-85
2023/11/03 07:49:55;;;;;;;2.10;0.73;;;;;;;11.48;67.31;97948.91;5035306;28;20257;-83
2023/11/03 07:52:22;;;;;;;2.30;0.87;;;;;;;11.46;67.45;97948.16;5046957;28;20205;-84
2023/11/03 07:54:48;;;;;;;1.60;0.70;;;;;;;11.52;67.41;97952.19;5045376;28;20689;-83
2023/11/03 07:57:16;;;;;;;2.20;0.80;;;;;;;11.40;67.22;97966.84;5051449;28;20247;-88
2023/11/03 07:59:43;;;;;;;1.03;0.80;;;;;;;11.50;66.80;97967.09;5042715;28;20225;-85
2023/11/03 08:02:09;;;;;;;2.20;0.80;;;;;;;11.23;66.95;97977.47;5034860;28;20225;-86
2023/11/03 08:05:11;;;;;;;;;;;;;;;;;;;;;
2023/11/03 08:07:38;;;;;;;4.17;2.50;;;;;;;11.55;67.35;97951.13;5017992;28;20224;-85
2023/11/03 08:10:11;;;;;;;5.17;1.30;;;;;;;11.62;67.37;97958.50;5058986;28;20222;-85
2023/11/03 08:12:38;;;;;;;1.80;0.83;;;;;;;11.69;66.15;97982.44;5057036;28;20205;-84
2023/11/03 08:15:06;;;;;;;4.80;0.90;;;;;;;11.80;66.22;97997.47;5053552;28;20236;-84
2023/11/03 08:17:33;;;;;;;3.63;0.90;;;;;;;11.76;65.88;97998.59;5040512;28;20212;-84
2023/11/03 08:19:59;;;;;;;1.83;0.83;;;;;;;11.69;65.44;98022.50;5041867;28;20226;-85
2023/11/03 08:22:29;;;;;;;3.20;1.07;;;;;;;11.84;65.91;98019.88;5033752;28;20228;-85
2023/11/03 08:24:55;;;;;;;3.00;0.77;;;;;;;11.71;65.03;98043.28;5042576;28;20305;-85
2023/11/03 08:27:22;;;;;;;3.67;0.80;;;;;;;11.83;66.09;98032.09;5046141;28;20217;-85
2023/11/03 08:29:49;;;;;;;1.10;0.80;;;;;;;11.90;65.86;98043.03;5054056;28;20272;-83
2023/11/03 08:32:16;;;;;;;5.20;1.10;;;;;;;11.92;66.12;98028.91;5026713;28;20206;-83
2023/11/03 08:34:42;;;;;;;2.07;0.87;;;;;;;12.06;65.47;98042.91;5035080;28;20693;-84
2023/11/03 08:37:10;;;;;;;1.67;0.87;;;;;;;11.79;64.65;98061.94;5054332;28;20232;-85
2023/11/03 08:39:38;;;;;;;2.60;0.90;;;;;;;12.04;65.25;98061.28;5058106;28;20225;-84
2023/11/03 08:42:05;;;;;;;3.40;0.87;;;;;;;12.15;65.15;98076.31;5057542;28;20225;-86
2023/11/03 08:44:31;;;;;;;2.00;0.80;;;;;;;12.20;64.82;98084.69;5052015;28;20205;-83
2023/11/03 08:46:58;;;;;;;3.57;0.93;;;;;;;11.99;63.95;98113.06;5046402;28;20213;-83
2023/11/03 08:49:24;;;;;;;4.50;1.00;;;;;;;11.98;63.83;98140.13;5052223;28;20221;-83
2023/11/03 08:51:52;;;;;;;3.87;1.10;;;;;;;12.20;64.72;98123.94;5058208;28;20734;-86
2023/11/03 08:54:19;;;;;;;2.67;0.93;;;;;;;12.19;64.89;98108.31;5039886;28;20280;-83
2023/11/03 08:56:47;;;;;;;3.53;0.90;;;;;;;11.99;63.84;98123.50;5045851;28;20248;-84
2023/11/03 08:59:14;;;;;;;4.70;0.97;;;;;;;12.07;64.30;98134.34;5046896;28;20218;-85
2023/11/03 09:01:43;;;;;;;5.57;1.10;;;;;;;11.99;64.61;98118.28;5036918;28;20222;-84
2023/11/03 09:04:10;;;;;;;3.77;1.03;;;;;;;12.14;65.13;98124.31;5047550;28;20205;-84
2023/11/03 09:06:36;;;;;;;1.53;0.67;;;;;;;11.83;64.12;98136.66;5071975;28;20211;-84
2023/11/03 09:09:04;;;;;;;1.50;0.90;;;;;;;12.10;64.73;98128.91;5052148;28;20231;-87
2023/11/03 09:11:31;;;;;;;2.23;0.80;;;;;;;12.19;65.14;98122.25;5050494;28;20220;-84
2023/11/03 09:14:02;;;;;;;4.67;0.90;;;;;;;12.25;64.43;98105.31;5048039;28;20202;-85
2023/11/03 09:16:28;;;;;;;3.03;1.10;;;;;;;12.30;64.81;98139.88;5057418;28;20202;-86
2023/11/03 09:18:57;;;;;;;2.50;0.90;;;;;;;12.34;65.36;98122.22;5057355;28;20225;-86
2023/11/03 09:21:23;;;;;;;3.23;1.07;;;;;;;12.04;64.64;98144.97;5044855;28;20224;-86
2023/11/03 09:23:50;;;;;;;3.67;1.23;;;;;;;12.06;63.88;98157.94;5048184;28;20236;-84
2023/11/03 09:26:16;;;;;;;5.00;1.03;;;;;;;12.25;65.04;98152.41;5050545;28;20209;-85
2023/11/03 09:28:44;;;;;;;4.27;1.10;;;;;;;12.23;64.47;98152.53;5050743;28;20584;-85
2023/11/03 09:31:12;;;;;;;1.73;1.20;;;;;;;12.32;64.45;98161.56;5055998;28;20241;-84
2023/11/03 09:33:39;;;;;;;3.97;1.13;;;;;;;12.29;64.99;98153.91;5038896;28;20685;-84
2023/11/03 09:36:06;;;;;;;3.73;1.30;;;;;;;12.12;64.02;98179.31;5039790;28;20207;-84
2023/11/03 09:38:32;;;;;;;1.70;0.83;;;;;;;12.20;64.81;98154.47;5046292;28;20206;-85
2023/11/03 09:40:59;;;;;;;1.70;1.13;;;;;;;12.17;64.47;98179.06;5055824;28;20205;-85
2023/11/03 09:43:29;;;;;;;5.50;1.20;;;;;;;12.33;64.18;98173.72;5058626;28;20210;-86
2023/11/03 09:45:57;;;;;;;4.20;1.10;;;;;;;12.42;65.70;98164.44;5076472;28;20220;-87
2023/11/03 09:48:26;;;;;;;5.23;1.47;;;;;;;12.43;63.56;98179.22;5079399;28;20241;-86
2023/11/03 09:50:53;;;;;;;3.03;1.40;;;;;;;12.43;64.15;98194.91;5080815;28;20174;-88
2023/11/03 09:53:22;;;;;;;2.33;0.90;;;;;;;12.54;63.15;98194.22;5068114;28;20201;-85
2023/11/03 09:55:49;;;;;;;4.13;1.13;;;;;;;12.56;63.92;98202.81;5047531;28;20743;-83
2023/11/03 09:58:16;;;;;;;5.70;1.47;;;;;;;12.51;63.04;98196.09;5047882;28;20215;-85
2023/11/03 10:00:42;;;;;;;2.07;0.93;;;;;;;12.58;62.43;98207.00;5044703;28;20225;-86
2023/11/03 10:03:09;;;;;;;4.17;1.20;;;;;;;12.66;63.50;98203.91;5055521;28;20623;-87
2023/11/03 10:05:37;;;;;;;4.87;1.50;;;;;;;12.55;62.48;98227.28;5049944;28;20209;-85
2023/11/03 10:08:06;;;;;;;2.40;0.90;;;;;;;12.67;63.84;98226.53;5047016;28;20202;-87
2023/11/03 10:10:34;;;;;;;3.77;1.00;;;;;;;12.45;62.27;98238.34;5051537;28;20226;-84
2023/11/03 10:13:01;;;;;;;6.00;1.20;;;;;;;12.75;63.04;98242.59;5036065;28;20206;-84
2023/11/03 10:15:27;;;;;;;3.30;1.10;;;;;;;12.83;62.95;98239.50;5036201;28;20216;-84
2023/11/03 10:17:54;;;;;;;3.87;1.37;;;;;;;12.77;63.50;98230.25;5043812;28;20207;-84
2023/11/03 10:20:22;;;;;;;5.60;0.80;;;;;;;12.84;62.84;98234.19;5067867;28;20249;-81
2023/11/03 10:22:50;;;;;;;3.30;0.90;;;;;;;12.81;62.74;98241.38;5077437;28;20210;-81
2023/11/03 10:25:18;;;;;;;2.73;1.20;;;;;;;12.55;62.42;98246.47;5060306;28;20217;-84
2023/11/03 10:27:47;;;;;;;3.43;1.37;;;;;;;12.93;63.64;98230.13;5057446;28;20210;-84
2023/11/03 10:30:15;;;;;;;3.33;1.67;;;;;;;12.92;63.19;98228.41;5056544;28;20260;-82
2023/11/03 10:32:43;;;;;;;4.13;1.30;;;;;;;13.07;62.93;98232.69;5056578;28;20205;-84
2023/11/03 10:35:12;;;;;;;5.40;1.23;;;;;;;13.18;63.49;98225.91;5048580;28;20207;-84
2023/11/03 10:37:39;;;;;;;3.00;1.00;;;;;;;13.21;64.45;98213.44;5048985;28;20652;-83
2023/11/03 10:40:12;;;;;;;2.37;1.00;;;;;;;13.29;63.94;98211.19;4356989;28;10000704;-82
2023/11/03 10:42:40;;;;;;;4.47;1.43;;;;;;;13.03;62.98;98233.81;5051426;28;20221;-82
2023/11/03 10:45:08;;;;;;;5.60;0.90;;;;;;;12.89;63.13;98226.84;5036057;28;20205;-82
2023/11/03 10:47:41;;;;;;;3.83;1.10;;;;;;;12.92;62.81;98231.03;5052112;28;20559;-81
2023/11/03 10:50:13;;;;;;;4.10;1.20;;;;;;;12.71;63.05;98246.34;5052577;28;20239;-82
2023/11/03 10:52:45;;;;;;;5.37;0.93;;;;;;;12.72;63.15;98245.41;5052735;28;20204;-82
2023/11/03 10:55:14;;;;;;;3.17;1.10;;;;;;;12.80;63.80;98242.31;5052817;28;20598;-82
2023/11/03 10:57:42;;;;;;;4.53;1.27;;;;;;;12.90;64.02;98211.97;5052524;28;20201;-82
2023/11/03 11:00:17;;;;;;;5.00;1.30;;;;;;;12.96;64.37;98208.13;5052149;28;20225;-82
2023/11/03 11:02:53;;;;;;;3.03;1.07;;;;;;;12.92;63.85;98202.22;5052746;28;20313;-81
2023/11/03 11:05:26;;;;;;;4.00;1.03;;;;;;;12.58;63.91;98214.03;5052111;28;20229;-80
2023/11/03 11:07:58;;;;;;;4.57;0.83;;;;;;;12.78;64.86;98194.44;5052252;28;20206;-82
2023/11/03 11:10:40;;;;;;;4.43;1.53;;;;;;;12.71;64.84;98181.75;5053911;28;20230;-84
2023/11/03 11:13:14;;;;;;;3.03;1.00;;;;;;;12.87;64.48;98163.25;5050312;28;20292;-81
2023/11/03 11:15:44;;;;;;;3.73;1.07;;;;;;;12.62;64.35;98198.03;5053362;28;20239;-84
2023/11/03 11:18:15;;;;;;;2.97;0.87;;;;;;;12.84;64.43;98208.00;5052752;28;20208;-81
2023/11/03 11:20:53;;;;;;;4.53;1.63;;;;;;;12.77;64.04;98205.84;5049445;28;20232;-85
2023/11/03 11:23:23;;;;;;;4.13;1.13;;;;;;;12.79;64.09;98215.28;5034492;28;20221;-85
2023/11/03 11:25:52;;;;;;;7.77;1.50;;;;;;;12.85;64.32;98216.69;5040894;28;20209;-84
2023/11/03 11:28:31;;;;;;;3.67;1.33;;;;;;;12.92;64.08;98210.09;5043482;28;20202;-85
2023/11/03 11:30:58;;;;;;;4.67;1.17;;;;;;;13.06;64.12;98223.16;5041478;28;20211;-86
2023/11/03 11:33:26;;;;;;;4.53;1.67;;;;;;;13.16;62.57;98222.53;5051242;28;20203;-80
2023/11/03 11:35:54;;;;;;;3.20;1.20;;;;;;;13.30;63.60;98218.13;5051509;28;20623;-81